Time;durP1;ratioP1;P1;durP2;ratioP2;P2;SDS_P1;SDS_P2;PMS_P1;PMS_P2;Temp;Humidity;BMP_temperature;BMP_pressure;BME280_temperature;BME280_humidity;BME280_pressure;Samples;Min_cycle;Max_cycle;Signal;HPM_P1;HPM_P2
2022/07/25 00:01:08;;;;;;;6.18;4.40;;;21.60;99.90;;;;;;5078075;28;20036;-80
2022/07/25 00:03:34;;;;;;;4.75;4.20;;;21.60;99.90;;;;;;5077535;28;20043;-79
2022/07/25 00:05:59;;;;;;;7.63;4.72;;;21.50;99.90;;;;;;5077981;28;20051;-79
2022/07/25 00:08:25;;;;;;;5.35;4.03;;;21.50;99.90;;;;;;5077669;28;20089;-79
2022/07/25 00:10:50;;;;;;;7.38;4.78;;;21.50;99.90;;;;;;5096212;28;20036;-79
2022/07/25 00:13:16;;;;;;;8.57;4.93;;;21.50;99.90;;;;;;5077689;28;20147;-80
2022/07/25 00:15:42;;;;;;;11.07;5.40;;;21.50;99.90;;;;;;5077606;28;20546;-79
2022/07/25 00:18:07;;;;;;;8.02;4.45;;;21.40;99.90;;;;;;5060754;28;20093;-79
2022/07/25 00:20:33;;;;;;;5.38;4.13;;;21.40;99.90;;;;;;5077137;28;20150;-79
2022/07/25 00:22:58;;;;;;;8.43;5.40;;;21.40;99.90;;;;;;5077329;28;20040;-79
2022/07/25 00:25:24;;;;;;;7.50;5.22;;;21.40;99.90;;;;;;5060672;28;20047;-80
2022/07/25 00:27:50;;;;;;;7.90;4.75;;;21.40;99.90;;;;;;5060801;28;20119;-79
2022/07/25 00:30:15;;;;;;;7.28;5.13;;;21.30;99.90;;;;;;5076809;28;20055;-79
2022/07/25 00:32:41;;;;;;;7.72;4.82;;;21.30;99.90;;;;;;5077017;28;20130;-79
2022/07/25 00:35:07;;;;;;;10.75;5.22;;;21.30;99.90;;;;;;5060733;28;20112;-80
2022/07/25 00:37:32;;;;;;;9.70;5.75;;;21.30;99.90;;;;;;5077072;28;20044;-79
2022/07/25 00:39:58;;;;;;;9.80;5.57;;;21.30;99.90;;;;;;5077116;28;20530;-79
2022/07/25 00:42:23;;;;;;;9.73;5.90;;;21.30;99.90;;;;;;5076691;28;20077;-79
2022/07/25 00:44:50;;;;;;;9.50;5.68;;;21.20;99.90;;;;;;5077061;28;20044;-79
2022/07/25 00:47:15;;;;;;;8.30;5.60;;;21.20;99.90;;;;;;5059428;28;20074;-79
2022/07/25 00:49:41;;;;;;;6.25;5.50;;;21.20;99.90;;;;;;5076826;28;20060;-79
2022/07/25 00:52:07;;;;;;;7.70;5.60;;;21.20;99.90;;;;;;5089571;28;20047;-79
2022/07/25 00:54:33;;;;;;;8.65;6.00;;;21.20;99.90;;;;;;5097116;28;20047;-79
2022/07/25 00:56:59;;;;;;;8.70;6.30;;;21.10;99.90;;;;;;5092282;28;20078;-79
2022/07/25 00:59:24;;;;;;;10.80;6.30;;;21.10;99.90;;;;;;5079927;28;20103;-79
2022/07/25 01:01:50;;;;;;;10.27;6.70;;;21.10;99.90;;;;;;5083667;28;20035;-79
2022/07/25 01:04:16;;;;;;;9.48;6.93;;;21.10;99.90;;;;;;5082290;28;20036;-79
2022/07/25 01:06:42;;;;;;;8.63;6.65;;;21.10;99.90;;;;;;5075895;28;20040;-79
2022/07/25 01:09:08;;;;;;;10.40;6.70;;;21.00;99.90;;;;;;5076163;28;20086;-79
2022/07/25 01:11:34;;;;;;;9.15;6.93;;;21.00;99.90;;;;;;5059363;28;20052;-79
2022/07/25 01:14:00;;;;;;;9.23;7.00;;;21.00;99.90;;;;;;5076311;28;20047;-79
2022/07/25 01:16:25;;;;;;;9.85;7.32;;;21.00;99.90;;;;;;5075987;28;20032;-79
2022/07/25 01:18:51;;;;;;;10.55;7.45;;;20.90;99.90;;;;;;5076069;28;20106;-79
2022/07/25 01:21:16;;;;;;;10.77;7.55;;;20.90;99.90;;;;;;5074821;28;20047;-79
2022/07/25 01:23:42;;;;;;;11.35;8.05;;;20.90;99.90;;;;;;5075874;28;20056;-79
2022/07/25 01:26:08;;;;;;;12.32;7.85;;;20.90;99.90;;;;;;5075512;28;20031;-79
2022/07/25 01:28:33;;;;;;;10.38;8.05;;;20.80;99.90;;;;;;5059051;28;20420;-79
2022/07/25 01:30:59;;;;;;;10.98;8.07;;;20.80;99.90;;;;;;5075191;28;20040;-79
2022/07/25 01:33:25;;;;;;;12.27;8.10;;;20.80;99.90;;;;;;5076310;28;20072;-79
2022/07/25 01:35:51;;;;;;;10.60;8.40;;;20.80;99.90;;;;;;5075566;28;20093;-79
2022/07/25 01:38:16;;;;;;;12.07;8.23;;;20.80;99.90;;;;;;5075985;28;20162;-79
2022/07/25 01:40:43;;;;;;;11.38;8.20;;;20.80;99.90;;;;;;5075528;28;20086;-79
2022/07/25 01:43:09;;;;;;;10.88;7.93;;;20.80;99.90;;;;;;5075438;28;20043;-79
2022/07/25 01:45:35;;;;;;;11.68;9.20;;;20.70;99.90;;;;;;5061083;28;20071;-79
2022/07/25 01:48:01;;;;;;;11.93;8.90;;;20.70;99.90;;;;;;5079791;28;20067;-79
2022/07/25 01:50:27;;;;;;;11.48;8.35;;;20.70;99.90;;;;;;5079921;28;20665;-79
2022/07/25 01:52:53;;;;;;;11.68;8.60;;;20.70;99.90;;;;;;5079572;28;20488;-79
2022/07/25 01:55:18;;;;;;;12.63;8.90;;;20.70;99.90;;;;;;5079835;28;20063;-79
2022/07/25 01:57:44;;;;;;;15.15;8.88;;;20.70;99.90;;;;;;5079331;28;20098;-79
2022/07/25 02:00:13;;;;;;;13.93;8.82;;;20.60;99.90;;;;;;5079390;28;20130;-79
2022/07/25 02:02:43;;;;;;;13.05;8.65;;;20.60;99.90;;;;;;5079551;28;20121;-79
2022/07/25 02:05:10;;;;;;;12.27;8.35;;;20.60;99.90;;;;;;5079899;28;20039;-79
2022/07/25 02:07:36;;;;;;;15.60;9.82;;;20.60;99.90;;;;;;5079529;28;20115;-79
2022/07/25 02:10:04;;;;;;;13.43;9.23;;;20.60;99.90;;;;;;5079198;28;20115;-79
2022/07/25 02:12:30;;;;;;;13.38;8.70;;;20.60;99.90;;;;;;5079929;28;20058;-79
2022/07/25 02:14:56;;;;;;;14.27;9.50;;;20.60;99.90;;;;;;5079205;28;20039;-79
2022/07/25 02:17:22;;;;;;;14.82;9.63;;;20.60;99.90;;;;;;5079216;28;20036;-79
2022/07/25 02:19:47;;;;;;;10.55;8.65;;;20.50;99.90;;;;;;5079707;28;20063;-79
2022/07/25 02:22:13;;;;;;;14.35;9.65;;;20.50;99.90;;;;;;5078937;28;20032;-79
2022/07/25 02:24:39;;;;;;;15.82;9.38;;;20.50;99.90;;;;;;5079315;28;20051;-79
2022/07/25 02:27:05;;;;;;;14.32;9.90;;;20.50;99.90;;;;;;5062658;28;20051;-79
2022/07/25 02:29:31;;;;;;;11.88;9.27;;;20.40;99.90;;;;;;5079101;28;20048;-79
2022/07/25 02:31:57;;;;;;;15.35;10.40;;;20.40;99.90;;;;;;5079289;28;20101;-77
2022/07/25 02:34:23;;;;;;;16.08;9.63;;;20.40;99.90;;;;;;5094418;28;20056;-78
2022/07/25 02:36:49;;;;;;;17.35;9.90;;;20.40;99.90;;;;;;5059505;28;20443;-77
2022/07/25 02:39:15;;;;;;;14.52;10.35;;;20.30;99.90;;;;;;5075873;28;20040;-77
2022/07/25 02:41:42;;;;;;;14.30;9.18;;;20.40;99.90;;;;;;5075723;28;20051;-77
2022/07/25 02:44:08;;;;;;;16.73;9.65;;;20.40;99.90;;;;;;5076435;28;20407;-77
2022/07/25 02:46:33;;;;;;;12.57;9.38;;;20.30;99.90;;;;;;5075961;28;20036;-78
2022/07/25 02:48:59;;;;;;;15.75;9.60;;;20.30;99.90;;;;;;5076058;28;20042;-77
2022/07/25 02:51:25;;;;;;;13.73;9.70;;;20.30;99.90;;;;;;5093470;28;20675;-77
2022/07/25 02:53:51;;;;;;;13.57;9.63;;;20.30;99.90;;;;;;5075820;28;20424;-77
2022/07/25 02:56:17;;;;;;;14.07;9.73;;;20.30;99.90;;;;;;5074698;28;20047;-77
2022/07/25 02:58:42;;;;;;;14.98;9.35;;;20.30;99.90;;;;;;5075178;28;20040;-77
2022/07/25 03:01:08;;;;;;;16.67;9.60;;;20.20;99.90;;;;;;5075216;28;20089;-77
2022/07/25 03:03:34;;;;;;;16.73;10.63;;;20.20;99.90;;;;;;5058906;28;20119;-77
2022/07/25 03:05:59;;;;;;;16.38;9.68;;;20.20;99.90;;;;;;5076312;28;20047;-77
2022/07/25 03:08:25;;;;;;;14.73;9.73;;;20.20;99.90;;;;;;5075350;28;20032;-77
2022/07/25 03:10:51;;;;;;;15.50;9.98;;;20.10;99.90;;;;;;5075076;28;20040;-76
2022/07/25 03:13:17;;;;;;;19.10;10.30;;;20.20;99.90;;;;;;5075256;28;20048;-77
2022/07/25 03:15:43;;;;;;;12.60;9.70;;;20.10;99.90;;;;;;5093188;28;20105;-77
2022/07/25 03:18:08;;;;;;;13.40;9.63;;;20.10;99.90;;;;;;5058934;28;20039;-77
2022/07/25 03:20:34;;;;;;;14.07;10.55;;;20.10;99.90;;;;;;5075005;28;20036;-78
2022/07/25 03:22:59;;;;;;;12.00;9.77;;;20.10;99.90;;;;;;5075414;28;20085;-77
2022/07/25 03:25:25;;;;;;;15.15;10.00;;;20.10;99.90;;;;;;5075440;28;20093;-77
2022/07/25 03:27:51;;;;;;;17.42;10.45;;;20.10;99.90;;;;;;5074890;28;20487;-77
2022/07/25 03:30:16;;;;;;;14.13;10.25;;;20.10;99.90;;;;;;5074557;28;20047;-78
2022/07/25 03:32:42;;;;;;;15.38;10.60;;;20.00;99.90;;;;;;5058383;28;20122;-77
2022/07/25 03:35:08;;;;;;;18.42;10.90;;;20.00;99.90;;;;;;5075209;28;20043;-77
2022/07/25 03:37:34;;;;;;;14.48;10.43;;;20.00;99.90;;;;;;5074878;28;20112;-77
2022/07/25 03:39:59;;;;;;;14.40;10.20;;;20.00;99.90;;;;;;5074839;28;20036;-77
2022/07/25 03:42:25;;;;;;;23.33;11.23;;;20.00;99.90;;;;;;5074785;28;20048;-78
2022/07/25 03:44:50;;;;;;;14.18;9.57;;;20.00;99.90;;;;;;5074849;28;20067;-77
2022/07/25 03:47:16;;;;;;;17.08;10.95;;;20.00;99.90;;;;;;5074520;28;20036;-77
2022/07/25 03:49:42;;;;;;;17.73;11.20;;;20.00;99.90;;;;;;5092251;28;20414;-77
2022/07/25 03:52:08;;;;;;;14.13;9.90;;;20.10;99.90;;;;;;5057888;28;20040;-77
2022/07/25 03:54:33;;;;;;;17.40;10.65;;;20.10;99.90;;;;;;5076033;28;20066;-79
2022/07/25 03:56:59;;;;;;;16.15;11.27;;;20.10;99.90;;;;;;5076898;28;20054;-79
2022/07/25 03:59:25;;;;;;;16.80;11.23;;;20.10;99.90;;;;;;5076205;28;20044;-79
2022/07/25 04:01:51;;;;;;;17.35;10.70;;;20.10;99.90;;;;;;5076437;28;20047;-79
2022/07/25 04:04:18;;;;;;;14.45;11.40;;;20.10;99.90;;;;;;5060308;28;20048;-79
2022/07/25 04:06:44;;;;;;;16.77;11.23;;;20.00;99.90;;;;;;5077150;28;20036;-80
2022/07/25 04:09:10;;;;;;;22.38;11.63;;;20.00;99.90;;;;;;5076577;28;20098;-79
2022/07/25 04:11:37;;;;;;;19.77;12.30;;;20.00;99.90;;;;;;5076811;28;20055;-78
2022/07/25 04:14:03;;;;;;;18.17;11.98;;;20.00;99.90;;;;;;5077356;28;20035;-80
2022/07/25 04:16:29;;;;;;;16.58;11.85;;;20.00;99.90;;;;;;5076978;28;20054;-80
2022/07/25 04:18:54;;;;;;;14.52;11.43;;;20.10;99.90;;;;;;5077160;28;20039;-79
2022/07/25 04:21:20;;;;;;;16.58;11.52;;;20.10;99.90;;;;;;5076928;28;20044;-79
2022/07/25 04:23:47;;;;;;;18.33;12.13;;;20.20;99.90;;;;;;5077125;28;20025;-78
2022/07/25 04:26:13;;;;;;;17.83;11.65;;;20.20;99.90;;;;;;5077175;28;20120;-79
2022/07/25 04:28:38;;;;;;;15.55;11.70;;;20.30;99.90;;;;;;5094723;28;20044;-79
2022/07/25 04:31:04;;;;;;;17.30;13.02;;;20.30;99.90;;;;;;5077244;28;20051;-79
2022/07/25 04:33:29;;;;;;;16.85;11.50;;;20.30;99.90;;;;;;5077415;28;20042;-80
2022/07/25 04:35:55;;;;;;;16.48;12.80;;;20.30;99.90;;;;;;5077020;28;20444;-79
2022/07/25 04:38:20;;;;;;;16.98;11.82;;;20.30;99.90;;;;;;5077209;28;20050;-79
2022/07/25 04:40:46;;;;;;;15.98;12.18;;;20.40;99.90;;;;;;5094336;28;20246;-83
2022/07/25 04:43:12;;;;;;;18.95;12.48;;;20.40;99.90;;;;;;5075990;28;20043;-82
2022/07/25 04:45:38;;;;;;;19.98;13.07;;;20.50;99.90;;;;;;5076967;28;20626;-81
2022/07/25 04:48:04;;;;;;;21.10;12.90;;;20.60;99.90;;;;;;5075514;28;20060;-82
2022/07/25 04:50:30;;;;;;;20.08;13.50;;;20.60;99.90;;;;;;5058118;28;20036;-82
2022/07/25 04:52:56;;;;;;;21.70;13.18;;;20.70;99.90;;;;;;5092400;28;20035;-82
2022/07/25 04:55:22;;;;;;;18.42;13.15;;;20.70;99.90;;;;;;5075898;28;20040;-82
2022/07/25 04:57:47;;;;;;;18.95;13.18;;;20.70;99.90;;;;;;5074975;28;20092;-82
2022/07/25 05:00:14;;;;;;;18.67;12.60;;;20.80;99.90;;;;;;5093972;28;20131;-82
2022/07/25 05:02:40;;;;;;;21.33;13.65;;;20.80;99.90;;;;;;5075518;28;20032;-82
2022/07/25 05:05:07;;;;;;;18.50;13.18;;;21.00;99.90;;;;;;5093199;28;20391;-82
2022/07/25 05:07:33;;;;;;;16.65;12.88;;;21.00;99.90;;;;;;5075997;28;20055;-81
2022/07/25 05:09:59;;;;;;;20.23;13.40;;;21.10;99.90;;;;;;5059385;28;20111;-82
2022/07/25 05:12:25;;;;;;;21.45;12.52;;;21.20;99.90;;;;;;5104373;28;20117;-82
2022/07/25 05:14:50;;;;;;;20.08;13.05;;;21.40;99.90;;;;;;5097983;28;20043;-81
2022/07/25 05:17:16;;;;;;;20.48;12.95;;;21.40;99.90;;;;;;5096479;28;20036;-81
2022/07/25 05:19:42;;;;;;;17.33;12.38;;;21.50;99.90;;;;;;5063218;28;20075;-82
2022/07/25 05:22:07;;;;;;;15.48;11.55;;;21.60;99.90;;;;;;5058042;28;20134;-82
2022/07/25 05:24:34;;;;;;;16.45;12.00;;;21.70;99.90;;;;;;5091429;28;20044;-82
2022/07/25 05:27:00;;;;;;;17.95;12.50;;;21.80;99.90;;;;;;5058024;28;20048;-82
2022/07/25 05:29:26;;;;;;;19.92;12.20;;;22.00;99.90;;;;;;5075617;28;20043;-82
2022/07/25 05:31:51;;;;;;;18.55;12.35;;;22.20;99.90;;;;;;5058179;28;20040;-82
2022/07/25 05:34:17;;;;;;;16.55;13.35;;;22.30;99.90;;;;;;5082593;28;20055;-82
2022/07/25 05:36:44;;;;;;;14.93;11.63;;;22.40;99.90;;;;;;5091030;28;20068;-82
2022/07/25 05:39:10;;;;;;;17.55;12.00;;;22.50;99.90;;;;;;5090789;28;20136;-82
2022/07/25 05:41:35;;;;;;;18.08;12.63;;;22.80;99.90;;;;;;5090905;28;20036;-82
2022/07/25 05:44:01;;;;;;;17.17;12.73;;;22.80;99.90;;;;;;5074287;28;20085;-82
2022/07/25 05:46:27;;;;;;;17.77;11.90;;;22.80;99.90;;;;;;5073333;28;20081;-82
2022/07/25 05:48:52;;;;;;;17.75;12.60;;;22.80;99.90;;;;;;5074567;28;20032;-83
2022/07/25 05:51:18;;;;;;;17.58;13.23;;;22.70;99.90;;;;;;5057608;28;20055;-82
2022/07/25 05:53:44;;;;;;;18.35;12.48;;;22.60;99.90;;;;;;5069203;28;20044;-82
2022/07/25 05:56:10;;;;;;;15.10;11.57;;;22.70;99.90;;;;;;5073558;28;20044;-82
2022/07/25 05:58:39;;;;;;;17.17;12.45;;;22.90;99.90;;;;;;5056572;28;20073;-82
2022/07/25 06:01:05;;;;;;;16.60;11.48;;;23.30;99.90;;;;;;5090576;28;20062;-82
2022/07/25 06:03:32;;;;;;;17.15;12.00;;;23.50;99.90;;;;;;5073057;28;20055;-83
2022/07/25 06:05:58;;;;;;;18.77;11.35;;;23.60;99.90;;;;;;5083063;28;20428;-82
2022/07/25 06:08:27;;;;;;;15.52;10.88;;;23.60;99.90;;;;;;5090298;28;20039;-83
2022/07/25 06:10:53;;;;;;;13.75;11.30;;;23.60;99.90;;;;;;5072250;28;20043;-83
2022/07/25 06:13:19;;;;;;;16.27;10.93;;;23.60;99.90;;;;;;5068824;28;20040;-82
2022/07/25 06:15:44;;;;;;;14.48;10.48;;;23.60;99.90;;;;;;5084854;28;20070;-82
2022/07/25 06:18:10;;;;;;;15.02;10.50;;;23.70;99.90;;;;;;5073996;28;20040;-82
2022/07/25 06:20:36;;;;;;;13.25;10.18;;;23.90;99.90;;;;;;5056806;28;20040;-82
2022/07/25 06:23:03;;;;;;;14.25;9.52;;;24.30;99.90;;;;;;5056516;28;20032;-82
2022/07/25 06:25:29;;;;;;;16.45;9.68;;;24.90;99.90;;;;;;5055691;28;20625;-82
2022/07/25 06:27:55;;;;;;;10.88;9.32;;;25.30;99.90;;;;;;5056079;28;20047;-82
2022/07/25 06:30:21;;;;;;;12.50;9.20;;;25.70;99.90;;;;;;5055297;28;20090;-82
2022/07/25 06:32:49;;;;;;;12.85;9.23;;;26.10;99.90;;;;;;5059951;28;20511;-83
2022/07/25 06:35:16;;;;;;;14.18;8.88;;;26.40;99.90;;;;;;5058844;28;20044;-83
2022/07/25 06:37:41;;;;;;;9.90;8.10;;;26.90;99.90;;;;;;5060487;28;20044;-82
2022/07/25 06:40:08;;;;;;;10.52;8.18;;;27.20;99.90;;;;;;5094497;28;20046;-83
2022/07/25 06:42:39;;;;;;;13.68;8.40;;;27.50;99.90;;;;;;5073866;28;20043;-82
2022/07/25 06:45:06;;;;;;;12.32;8.52;;;27.60;99.90;;;;;;5059858;28;20123;-83
2022/07/25 06:47:32;;;;;;;10.55;7.90;;;27.80;99.90;;;;;;5059528;28;20036;-83
2022/07/25 06:49:57;;;;;;;11.68;8.65;;;27.90;99.90;;;;;;5074881;28;20032;-84
2022/07/25 06:52:23;;;;;;;9.73;8.02;;;28.00;99.90;;;;;;5075517;28;20068;-83
2022/07/25 06:54:49;;;;;;;10.68;9.20;;;28.20;99.90;;;;;;5059467;28;20494;-83
2022/07/25 06:57:14;;;;;;;13.90;10.45;;;28.20;99.90;;;;;;5087868;28;20040;-83
2022/07/25 06:59:40;;;;;;;11.25;9.27;;;28.10;99.90;;;;;;5083753;28;20032;-83
2022/07/25 07:02:05;;;;;;;10.98;7.82;;;28.00;99.90;;;;;;5075135;28;20173;-83
2022/07/25 07:04:31;;;;;;;13.65;7.50;;;28.00;99.90;;;;;;5093616;28;20040;-83
2022/07/25 07:06:56;;;;;;;11.13;7.75;;;27.90;99.90;;;;;;5074285;28;20371;-83
2022/07/25 07:09:22;;;;;;;12.73;8.43;;;27.70;99.90;;;;;;5065516;28;20040;-83
2022/07/25 07:11:48;;;;;;;8.30;7.20;;;27.50;99.90;;;;;;5055391;28;20658;-83
2022/07/25 07:14:14;;;;;;;8.23;7.13;;;27.50;99.90;;;;;;5073737;28;20059;-83
2022/07/25 07:16:40;;;;;;;12.35;8.15;;;27.70;99.90;;;;;;5080239;28;20036;-84
2022/07/25 07:19:09;;;;;;;9.38;7.45;;;27.80;99.90;;;;;;5057222;28;20047;-84
2022/07/25 07:21:35;;;;;;;9.75;7.93;;;27.60;99.90;;;;;;5048836;28;20078;-83
2022/07/25 07:24:01;;;;;;;11.23;8.18;;;27.30;99.90;;;;;;5058642;28;20071;-84
2022/07/25 07:26:26;;;;;;;11.50;8.07;;;27.00;99.90;;;;;;5058816;28;20398;-83
2022/07/25 07:28:53;;;;;;;12.85;8.82;;;26.80;99.90;;;;;;5068322;28;20033;-83
2022/07/25 07:31:18;;;;;;;10.40;8.23;;;26.70;99.90;;;;;;5057954;28;20367;-83
2022/07/25 07:33:44;;;;;;;11.38;8.82;;;26.50;99.90;;;;;;5058284;28;20081;-81
2022/07/25 07:36:10;;;;;;;13.32;9.75;;;26.40;99.90;;;;;;5068225;28;20044;-75
2022/07/25 07:38:35;;;;;;;14.38;10.45;;;26.10;99.90;;;;;;5057268;28;20040;-80
2022/07/25 07:41:01;;;;;;;13.65;9.63;;;25.80;99.90;;;;;;5039566;28;20048;-81
2022/07/25 07:43:30;;;;;;;12.70;9.25;;;25.70;99.90;;;;;;5055982;28;20083;-80
2022/07/25 07:45:59;;;;;;;13.02;9.30;;;25.60;99.90;;;;;;5056743;28;20403;-81
2022/07/25 07:48:28;;;;;;;13.50;9.10;;;25.30;99.90;;;;;;5056386;28;20399;-80
2022/07/25 07:50:54;;;;;;;11.23;8.65;;;25.30;99.90;;;;;;5055983;28;20076;-80
2022/07/25 07:53:20;;;;;;;10.23;8.40;;;25.40;99.90;;;;;;5056646;28;20044;-80
2022/07/25 07:55:53;;;;;;;11.70;8.07;;;25.70;99.90;;;;;;5056720;28;20052;-80
2022/07/25 07:58:20;;;;;;;9.63;7.60;;;25.80;99.90;;;;;;5056149;28;20048;-80
2022/07/25 08:00:48;;;;;;;11.95;7.55;;;26.10;99.90;;;;;;5056561;28;20060;-80
2022/07/25 08:03:20;;;;;;;9.05;7.75;;;26.40;99.90;;;;;;5055105;28;20074;-80
2022/07/25 08:05:47;;;;;;;10.13;7.57;;;26.70;99.90;;;;;;5054962;28;20040;-80
2022/07/25 08:08:14;;;;;;;11.25;7.32;;;26.80;99.90;;;;;;5055148;28;20523;-80
2022/07/25 08:10:43;;;;;;;11.70;7.63;;;26.80;99.90;;;;;;5055295;28;20086;-80
2022/07/25 08:13:27;;;;;;;9.23;6.63;;;26.80;99.90;;;;;;5054833;28;20392;-80
2022/07/25 08:15:56;;;;;;;9.43;6.75;;;26.50;99.90;;;;;;5055215;28;20052;-80
2022/07/25 08:18:23;;;;;;;8.52;6.68;;;26.20;99.90;;;;;;5054675;28;20041;-80
2022/07/25 08:20:49;;;;;;;7.70;5.75;;;26.10;99.90;;;;;;5054543;28;20124;-80
2022/07/25 08:23:16;;;;;;;9.25;6.45;;;26.10;99.90;;;;;;5055145;28;20032;-80
2022/07/25 08:25:42;;;;;;;7.88;6.25;;;26.20;99.90;;;;;;5055313;28;20054;-80
2022/07/25 08:28:08;;;;;;;7.97;6.00;;;26.30;99.90;;;;;;5055059;28;20556;-80
2022/07/25 08:30:35;;;;;;;9.15;6.20;;;26.20;99.90;;;;;;5054815;28;20090;-80
2022/07/25 08:33:03;;;;;;;9.25;6.50;;;26.10;99.90;;;;;;5054887;28;20093;-80
2022/07/25 08:35:30;;;;;;;10.63;6.15;;;26.00;99.90;;;;;;5054933;28;20051;-80
2022/07/25 08:37:56;;;;;;;8.82;6.72;;;25.90;99.90;;;;;;5055778;28;20052;-80
2022/07/25 08:40:23;;;;;;;8.43;6.57;;;25.90;99.90;;;;;;5055319;28;20048;-79
2022/07/25 08:42:50;;;;;;;12.38;6.95;;;25.90;99.90;;;;;;5056367;28;20048;-79
2022/07/25 08:45:20;;;;;;;11.68;6.55;;;25.70;99.90;;;;;;5073685;28;20040;-80
2022/07/25 08:47:49;;;;;;;10.55;6.25;;;25.60;99.90;;;;;;5062850;28;20040;-80
2022/07/25 08:50:18;;;;;;;9.68;6.32;;;25.50;99.90;;;;;;5070329;28;20114;-80
2022/07/25 08:52:46;;;;;;;8.75;5.80;;;25.40;99.90;;;;;;5073673;28;20052;-80
2022/07/25 08:55:15;;;;;;;7.72;5.93;;;25.30;99.90;;;;;;5071308;28;20101;-80
2022/07/25 08:57:45;;;;;;;8.32;5.72;;;25.20;99.90;;;;;;5072171;28;20047;-80
2022/07/25 09:00:14;;;;;;;8.18;4.75;;;25.10;99.90;;;;;;5055509;28;20040;-80
2022/07/25 09:02:40;;;;;;;13.55;5.50;;;25.20;99.90;;;;;;5071800;28;20044;-80
2022/07/25 09:05:07;;;;;;;6.25;4.95;;;25.30;99.90;;;;;;5072251;28;20047;-79
2022/07/25 09:07:39;;;;;;;7.00;4.40;;;25.30;99.90;;;;;;5073774;28;20115;-80
2022/07/25 09:10:19;;;;;;;7.53;4.50;;;25.50;99.90;;;;;;5071819;28;20040;-80
2022/07/25 09:12:56;;;;;;;6.10;3.95;;;25.40;99.90;;;;;;5072616;28;20043;-81
2022/07/25 09:15:32;;;;;;;6.45;3.72;;;25.40;99.90;;;;;;5075286;28;20044;-80
2022/07/25 09:18:01;;;;;;;5.22;4.43;;;25.50;99.90;;;;;;5075647;28;20040;-80
2022/07/25 09:20:45;;;;;;;5.20;2.85;;;25.50;99.90;;;;;;5072853;28;20052;-80
2022/07/25 09:23:13;;;;;;;9.85;3.13;;;25.40;99.90;;;;;;5060056;28;20067;-80
2022/07/25 09:25:39;;;;;;;3.67;2.60;;;25.50;99.90;;;;;;5075684;28;20044;-80
2022/07/25 09:28:12;;;;;;;3.40;2.25;;;25.50;99.90;;;;;;5074418;28;20560;-80
2022/07/25 09:30:39;;;;;;;3.38;1.95;;;25.50;99.90;;;;;;5076170;28;20044;-80
2022/07/25 09:33:05;;;;;;;5.07;2.15;;;25.50;99.90;;;;;;5074319;28;20071;-81
2022/07/25 09:35:32;;;;;;;2.42;1.88;;;25.60;99.90;;;;;;5074542;28;20498;-80
2022/07/25 09:38:13;;;;;;;3.22;1.73;;;25.90;99.90;;;;;;5075713;28;20051;-80
2022/07/25 09:40:39;;;;;;;3.80;1.77;;;26.20;99.90;;;;;;5075352;28;20044;-80
2022/07/25 09:43:06;;;;;;;3.85;1.60;;;26.40;99.90;;;;;;5058138;28;20804;-81
2022/07/25 09:45:32;;;;;;;4.90;1.85;;;26.40;99.90;;;;;;5074100;28;20042;-80
2022/07/25 09:48:01;;;;;;;3.78;1.80;;;26.40;99.90;;;;;;5078636;28;20056;-79
2022/07/25 09:50:29;;;;;;;2.08;1.85;;;26.40;99.90;;;;;;5078434;28;20146;-79
2022/07/25 09:52:59;;;;;;;2.63;1.80;;;26.40;99.90;;;;;;5074176;28;20070;-79
2022/07/25 09:55:25;;;;;;;4.13;2.60;;;26.20;99.90;;;;;;5059290;28;20491;-81
2022/07/25 09:57:51;;;;;;;5.45;2.05;;;25.90;99.90;;;;;;5055162;28;20055;-79
2022/07/25 10:00:35;;;;;;;3.88;2.33;;;25.60;99.90;;;;;;5039177;28;20052;-80
2022/07/25 10:03:08;;;;;;;3.58;2.03;;;25.30;99.90;;;;;;5056078;28;20046;-80
2022/07/25 10:06:08;;;;;;;2.10;1.90;;;25.00;99.90;;;;;;5038329;28;20036;-78
2022/07/25 10:08:38;;;;;;;5.05;2.30;;;25.00;99.90;;;;;;5045609;28;20056;-79
2022/07/25 10:11:16;;;;;;;3.03;1.98;;;25.50;99.90;;;;;;5056222;28;20033;-77
2022/07/25 10:13:42;;;;;;;3.72;2.03;;;25.90;99.90;;;;;;5056266;28;20048;-78
2022/07/25 10:16:17;;;;;;;5.75;1.98;;;26.30;99.90;;;;;;5056034;28;20450;-77
2022/07/25 10:18:51;;;;;;;2.33;1.90;;;26.60;99.90;;;;;;5056203;28;20075;-78
2022/07/25 10:21:17;;;;;;;3.38;1.90;;;26.90;99.90;;;;;;5055590;28;20040;-77
2022/07/25 10:23:45;;;;;;;1.98;1.58;;;27.10;99.90;;;;;;5055969;28;20127;-77
2022/07/25 10:26:18;;;;;;;3.00;1.70;;;27.20;99.90;;;;;;5039846;28;20048;-79
2022/07/25 10:28:49;;;;;;;1.05;0.90;;;27.40;99.90;;;;;;5043640;28;20364;-77
2022/07/25 10:31:20;;;;;;;3.38;1.25;;;27.30;99.90;;;;;;5075084;28;20101;-77
2022/07/25 10:33:57;;;;;;;1.40;0.75;;;27.10;99.90;;;;;;5057146;28;20043;-77
2022/07/25 10:36:27;;;;;;;1.88;1.00;;;26.90;99.90;;;;;;5073205;28;20407;-77
2022/07/25 10:39:00;;;;;;;3.45;0.90;;;26.80;99.90;;;;;;5053772;28;20139;-77
2022/07/25 10:41:27;;;;;;;2.15;0.90;;;26.50;99.90;;;;;;5075450;28;20046;-77
2022/07/25 10:43:58;;;;;;;3.38;0.90;;;26.40;99.90;;;;;;5075960;28;20403;-77
2022/07/25 10:46:29;;;;;;;1.98;1.13;;;26.10;99.90;;;;;;5075851;28;20093;-77
2022/07/25 10:49:00;;;;;;;1.95;0.70;;;25.90;99.90;;;;;;5076224;28;20519;-79
2022/07/25 10:51:36;;;;;;;2.15;0.98;;;25.70;99.90;;;;;;5075854;28;20509;-78
2022/07/25 10:54:12;;;;;;;3.63;1.02;;;25.50;99.90;;;;;;5058846;28;20075;-77
2022/07/25 10:56:54;;;;;;;3.83;1.00;;;25.40;99.90;;;;;;5076041;28;20040;-76
2022/07/25 10:59:30;;;;;;;6.32;1.48;;;25.20;99.90;;;;;;5075340;28;20040;-78
2022/07/25 11:01:56;;;;;;;4.00;1.20;;;25.10;99.90;;;;;;5076407;28;20066;-79
2022/07/25 11:04:22;;;;;;;3.38;1.58;;;25.00;99.90;;;;;;5060521;28;20105;-79
2022/07/25 11:06:48;;;;;;;5.32;1.40;;;25.10;99.90;;;;;;5074775;28;20039;-79
2022/07/25 11:09:26;;;;;;;4.32;1.67;;;25.00;99.90;;;;;;5068722;28;20036;-79
2022/07/25 11:11:55;;;;;;;4.28;1.67;;;24.90;99.90;;;;;;5040948;28;20388;-79
2022/07/25 11:14:23;;;;;;;5.40;1.75;;;24.70;99.90;;;;;;5065185;28;20055;-78
2022/07/25 11:16:51;;;;;;;5.20;1.70;;;24.70;99.90;;;;;;5080644;28;20039;-76
2022/07/25 11:19:26;;;;;;;6.65;1.92;;;24.80;99.90;;;;;;5096219;28;20031;-78
2022/07/25 11:21:54;;;;;;;6.07;1.95;;;25.00;99.90;;;;;;5088243;28;20036;-79
2022/07/25 11:24:21;;;;;;;3.83;1.77;;;25.20;99.90;;;;;;5064837;28;20111;-79
2022/07/25 11:26:53;;;;;;;6.32;1.58;;;25.40;99.90;;;;;;5054962;28;20051;-79
2022/07/25 11:29:25;;;;;;;7.43;1.90;;;25.50;99.90;;;;;;5071297;28;20036;-79
2022/07/25 11:32:09;;;;;;;4.47;1.77;;;25.40;99.90;;;;;;5057816;28;20410;-78
2022/07/25 11:34:42;;;;;;;5.88;2.15;;;25.40;99.90;;;;;;5074692;28;20115;-79
2022/07/25 11:37:10;;;;;;;7.75;2.05;;;25.40;99.90;;;;;;5073078;28;20052;-78
2022/07/25 11:39:38;;;;;;;7.07;1.83;;;25.50;99.90;;;;;;5092503;28;20032;-78
2022/07/25 11:42:06;;;;;;;4.82;1.98;;;25.50;99.90;;;;;;5072464;28;20090;-78
2022/07/25 11:44:37;;;;;;;6.30;2.10;;;25.60;99.90;;;;;;5054446;28;20120;-78
2022/07/25 11:47:09;;;;;;;6.18;1.90;;;25.50;99.90;;;;;;5056045;28;20029;-78
2022/07/25 11:49:45;;;;;;;5.07;2.20;;;25.50;99.90;;;;;;5072959;28;20035;-79
2022/07/25 11:52:23;;;;;;;5.47;1.77;;;25.70;99.90;;;;;;5064974;28;20127;-79
2022/07/25 11:54:57;;;;;;;7.82;2.25;;;25.80;99.90;;;;;;5069166;28;20487;-80
2022/07/25 11:57:25;;;;;;;6.30;1.83;;;25.90;99.90;;;;;;5055984;28;20556;-79
2022/07/25 11:59:52;;;;;;;5.95;2.08;;;25.90;99.90;;;;;;5073839;28;20709;-79
2022/07/25 12:02:22;;;;;;;6.03;1.85;;;26.10;99.90;;;;;;5053590;28;20063;-80
2022/07/25 12:04:56;;;;;;;7.32;1.67;;;26.10;99.90;;;;;;5071871;28;20040;-80
2022/07/25 12:07:39;;;;;;;10.00;2.03;;;26.00;99.90;;;;;;5074297;28;20043;-80
2022/07/25 12:10:16;;;;;;;9.07;2.28;;;25.70;99.90;;;;;;5057433;28;20032;-80
2022/07/25 12:12:47;;;;;;;6.75;2.03;;;25.40;99.90;;;;;;5057113;28;20754;-79
2022/07/25 12:15:14;;;;;;;9.55;1.85;;;24.90;99.90;;;;;;5074237;28;20047;-79
2022/07/25 12:17:42;;;;;;;9.45;2.53;;;24.70;99.90;;;;;;5091652;28;20062;-79
2022/07/25 12:20:16;;;;;;;5.43;2.22;;;24.60;99.90;;;;;;5057406;28;20606;-79
2022/07/25 12:22:42;;;;;;;5.88;2.00;;;24.70;99.90;;;;;;5073343;28;20410;-79
2022/07/25 12:25:08;;;;;;;5.32;1.20;;;24.70;99.90;;;;;;5073935;28;20127;-79
2022/07/25 12:27:34;;;;;;;5.35;1.70;;;24.70;99.90;;;;;;5057664;28;20044;-79
2022/07/25 12:30:00;;;;;;;2.33;1.15;;;24.70;99.90;;;;;;5091681;28;20475;-79
2022/07/25 12:32:25;;;;;;;5.40;1.40;;;24.80;99.90;;;;;;5057055;28;20079;-78
2022/07/25 12:34:51;;;;;;;7.28;1.88;;;24.90;99.90;;;;;;5056789;28;20054;-78
2022/07/25 12:37:16;;;;;;;6.60;1.50;;;24.80;99.90;;;;;;5055819;28;20091;-78
2022/07/25 12:39:42;;;;;;;4.60;1.48;;;24.80;99.90;;;;;;5036552;28;20036;-78